Time;durP1;ratioP1;P1;durP2;ratioP2;P2;SDS_P1;SDS_P2;PMS_P1;PMS_P2;Temp;Humidity;BMP_temperature;BMP_pressure;BME280_temperature;BME280_humidity;BME280_pressure;Samples;Min_cycle;Max_cycle;Signal;HPM_P1;HPM_P2
2022/07/16 00:03:10;;;;;;;0.00;0.00;;;22.00;66.40;;;;;;3963794;29;20467;-67
2022/07/16 00:05:32;;;;;;;0.00;0.00;;;22.00;66.50;;;;;;3972406;29;20050;-68
2022/07/16 00:07:54;;;;;;;0.00;0.00;;;22.00;66.40;;;;;;3967321;29;20070;-67
2022/07/16 00:10:18;;;;;;;0.00;0.00;;;22.00;67.30;;;;;;3958919;29;20086;-67
2022/07/16 00:12:40;;;;;;;0.00;0.00;;;22.00;66.50;;;;;;3957546;29;20069;-68
2022/07/16 00:15:03;;;;;;;0.00;0.00;;;22.00;66.50;;;;;;3957957;29;20143;-67
2022/07/16 00:17:25;;;;;;;0.30;0.30;;;22.00;66.60;;;;;;3957700;29;20100;-67
2022/07/16 00:19:46;;;;;;;0.00;0.00;;;22.00;66.70;;;;;;3958558;29;20051;-67
2022/07/16 00:22:08;;;;;;;0.00;0.00;;;22.00;66.70;;;;;;3958021;29;21199;-67
2022/07/16 00:24:30;;;;;;;0.00;0.00;;;21.90;66.60;;;;;;3957341;29;20500;-67
2022/07/16 00:26:54;;;;;;;0.00;0.00;;;21.90;66.70;;;;;;3964561;29;20430;-68
2022/07/16 00:29:18;;;;;;;0.45;0.32;;;21.90;66.70;;;;;;3972249;29;20556;-68
2022/07/16 00:31:40;;;;;;;0.00;0.00;;;21.90;66.80;;;;;;3972397;29;20054;-67
2022/07/16 00:34:02;;;;;;;0.20;0.20;;;21.90;66.80;;;;;;3972497;29;20142;-67
2022/07/16 00:36:24;;;;;;;0.00;0.00;;;21.90;66.90;;;;;;3958098;29;20072;-67
2022/07/16 00:38:46;;;;;;;0.00;0.00;;;21.90;67.80;;;;;;3951485;29;20058;-67
2022/07/16 00:41:16;;;;;;;0.00;0.00;;;21.90;67.00;;;;;;3956641;29;20055;-67
2022/07/16 00:43:47;;;;;;;0.00;0.00;;;21.90;67.00;;;;;;3957312;29;20070;-67
2022/07/16 00:46:09;;;;;;;0.00;0.00;;;21.90;67.20;;;;;;3967987;29;20502;-69
2022/07/16 00:48:32;;;;;;;0.00;0.00;;;21.90;67.30;;;;;;3958228;29;20465;-68
2022/07/16 00:50:54;;;;;;;0.00;0.00;;;21.90;67.30;;;;;;3972212;29;20066;-68
2022/07/16 00:53:16;;;;;;;0.00;0.00;;;21.90;67.30;;;;;;3972344;29;20067;-67
2022/07/16 00:55:39;;;;;;;0.00;0.00;;;21.90;67.40;;;;;;3964552;29;20142;-68
2022/07/16 00:58:02;;;;;;;0.80;0.70;;;21.90;67.60;;;;;;3957208;29;20134;-67
2022/07/16 01:00:26;;;;;;;0.00;0.00;;;21.90;67.70;;;;;;3956911;29;20058;-68
2022/07/16 01:02:48;;;;;;;0.00;0.00;;;21.90;67.80;;;;;;3957073;29;20055;-68
2022/07/16 01:05:11;;;;;;;0.00;0.00;;;21.90;67.80;;;;;;3957953;29;20108;-69
2022/07/16 01:07:33;;;;;;;0.00;0.00;;;21.80;67.80;;;;;;3957245;29;20055;-69
2022/07/16 01:09:56;;;;;;;0.00;0.00;;;21.80;67.90;;;;;;3956589;29;20085;-68
2022/07/16 01:12:19;;;;;;;0.00;0.00;;;21.80;67.90;;;;;;3943270;29;20124;-68
2022/07/16 01:14:42;;;;;;;0.00;0.00;;;21.80;67.90;;;;;;3956232;29;20058;-69
2022/07/16 01:17:06;;;;;;;0.00;0.00;;;21.80;68.00;;;;;;3942989;30;20061;-69
2022/07/16 01:19:28;;;;;;;0.10;0.10;;;21.80;68.00;;;;;;3956274;30;20059;-68
2022/07/16 01:21:50;;;;;;;0.80;0.38;;;21.80;68.10;;;;;;3957108;30;20066;-69
2022/07/16 01:24:14;;;;;;;0.00;0.00;;;21.80;68.10;;;;;;3955045;30;20055;-68
2022/07/16 01:26:36;;;;;;;0.00;0.00;;;21.80;68.10;;;;;;3943054;29;20147;-68
2022/07/16 01:28:58;;;;;;;0.00;0.00;;;21.80;68.30;;;;;;3956368;29;20085;-69
2022/07/16 01:31:20;;;;;;;0.00;0.00;;;21.80;68.30;;;;;;3956425;29;20075;-68
2022/07/16 01:33:43;;;;;;;0.00;0.00;;;21.80;68.40;;;;;;3956246;29;20061;-68
2022/07/16 01:36:08;;;;;;;0.00;0.00;;;21.80;68.40;;;;;;3942522;29;20393;-68
2022/07/16 01:38:30;;;;;;;0.00;0.00;;;21.80;68.50;;;;;;3956017;29;20107;-68
2022/07/16 01:40:54;;;;;;;0.00;0.00;;;21.80;68.50;;;;;;3956231;29;20063;-68
2022/07/16 01:43:18;;;;;;;0.00;0.00;;;21.80;68.60;;;;;;3956447;29;20050;-68
2022/07/16 01:45:40;;;;;;;0.00;0.00;;;21.80;68.60;;;;;;3969270;29;20054;-68
2022/07/16 01:48:02;;;;;;;0.00;0.00;;;21.80;68.60;;;;;;3970569;29;20130;-67
2022/07/16 01:50:24;;;;;;;0.00;0.00;;;21.80;69.60;;;;;;3971119;29;20055;-67
2022/07/16 01:52:47;;;;;;;0.00;0.00;;;21.70;68.70;;;;;;3971328;29;20062;-67
2022/07/16 01:55:09;;;;;;;6.45;2.00;;;21.80;68.80;;;;;;3956993;29;20470;-67
2022/07/16 01:57:32;;;;;;;2.22;0.85;;;21.70;68.80;;;;;;3955894;29;20055;-67
2022/07/16 01:59:55;;;;;;;0.00;0.00;;;21.70;68.90;;;;;;3956015;29;20067;-67
2022/07/16 02:02:17;;;;;;;0.05;0.05;;;21.70;69.00;;;;;;3955759;29;20649;-67
2022/07/16 02:04:40;;;;;;;0.00;0.00;;;21.70;69.00;;;;;;3969044;29;20070;-68
2022/07/16 02:07:02;;;;;;;0.00;0.00;;;21.70;69.00;;;;;;3970621;29;20467;-68
2022/07/16 02:09:24;;;;;;;0.00;0.00;;;21.70;69.10;;;;;;3971044;29;20065;-67
2022/07/16 02:11:46;;;;;;;0.00;0.00;;;21.70;69.10;;;;;;3966701;29;20053;-67
2022/07/16 02:14:09;;;;;;;0.55;0.47;;;21.70;69.10;;;;;;3956301;29;20108;-67
2022/07/16 02:16:31;;;;;;;0.00;0.00;;;21.70;69.30;;;;;;3955991;29;20055;-66
2022/07/16 02:18:52;;;;;;;0.00;0.00;;;21.70;69.20;;;;;;3956278;29;20551;-66
2022/07/16 02:21:14;;;;;;;0.00;0.00;;;21.70;69.30;;;;;;3942376;29;20059;-66
2022/07/16 02:23:36;;;;;;;0.00;0.00;;;21.70;69.30;;;;;;3956302;30;20434;-66
2022/07/16 02:25:59;;;;;;;0.38;0.38;;;21.70;69.40;;;;;;3941896;30;20056;-67
2022/07/16 02:28:21;;;;;;;0.05;0.05;;;21.70;69.40;;;;;;3942050;30;20063;-67
2022/07/16 02:30:46;;;;;;;0.00;0.00;;;21.70;69.50;;;;;;3955859;30;20054;-67
2022/07/16 02:33:09;;;;;;;0.00;0.00;;;21.70;69.50;;;;;;3967502;29;20076;-67
2022/07/16 02:35:31;;;;;;;0.15;0.15;;;21.70;69.60;;;;;;3970562;29;20518;-66
2022/07/16 02:37:52;;;;;;;0.00;0.00;;;21.70;69.60;;;;;;3970970;29;20058;-68
2022/07/16 02:40:14;;;;;;;0.00;0.00;;;21.70;69.70;;;;;;3970184;29;20422;-67
2022/07/16 02:42:36;;;;;;;0.00;0.00;;;21.70;69.90;;;;;;3970998;29;20059;-67
2022/07/16 02:44:59;;;;;;;1.40;1.30;;;21.70;69.80;;;;;;3970657;29;20081;-67
2022/07/16 02:47:22;;;;;;;0.00;0.00;;;21.70;70.00;;;;;;3970882;29;20081;-66
2022/07/16 02:49:44;;;;;;;2.42;0.80;;;21.60;70.10;;;;;;3969440;29;20058;-66
2022/07/16 02:52:06;;;;;;;0.00;0.00;;;21.60;70.00;;;;;;3956071;30;20047;-66
2022/07/16 02:54:28;;;;;;;0.10;0.10;;;21.60;70.00;;;;;;3955983;30;20089;-66
2022/07/16 02:56:50;;;;;;;0.32;0.32;;;21.60;69.80;;;;;;3955961;30;20132;-66
2022/07/16 02:59:12;;;;;;;0.00;0.00;;;21.60;70.50;;;;;;3955767;30;20055;-66
2022/07/16 03:01:33;;;;;;;0.00;0.00;;;21.60;69.80;;;;;;3942131;29;20078;-67
2022/07/16 03:03:57;;;;;;;0.00;0.00;;;21.60;70.00;;;;;;3958175;29;20059;-67
2022/07/16 03:06:19;;;;;;;0.00;0.00;;;21.60;70.10;;;;;;3958496;29;20561;-67
2022/07/16 03:08:42;;;;;;;0.00;0.00;;;21.60;70.10;;;;;;3945237;29;20063;-67
2022/07/16 03:11:04;;;;;;;0.00;0.00;;;21.60;70.10;;;;;;3969122;29;20122;-67
2022/07/16 03:13:26;;;;;;;0.00;0.00;;;21.60;70.20;;;;;;3973691;29;20149;-66
2022/07/16 03:15:48;;;;;;;0.00;0.00;;;21.50;70.20;;;;;;3973266;29;20050;-67
2022/07/16 03:18:10;;;;;;;0.00;0.00;;;21.50;70.20;;;;;;3973945;29;20066;-66
2022/07/16 03:20:34;;;;;;;0.00;0.00;;;21.50;70.30;;;;;;3947156;29;20078;-66
2022/07/16 03:22:56;;;;;;;0.00;0.00;;;21.50;70.40;;;;;;3958923;29;20055;-66
2022/07/16 03:25:18;;;;;;;0.00;0.00;;;21.50;70.50;;;;;;3958356;29;20423;-66
2022/07/16 03:27:40;;;;;;;0.00;0.00;;;21.50;70.40;;;;;;3958670;29;20063;-66
2022/07/16 03:30:02;;;;;;;0.00;0.00;;;21.50;70.50;;;;;;3965241;29;20065;-66
2022/07/16 03:32:25;;;;;;;0.00;0.00;;;21.50;70.50;;;;;;3973181;29;20395;-66
2022/07/16 03:34:47;;;;;;;0.00;0.00;;;21.50;70.60;;;;;;3973212;29;20047;-66
2022/07/16 03:37:10;;;;;;;0.00;0.00;;;21.50;70.60;;;;;;3973478;29;20047;-66
2022/07/16 03:39:33;;;;;;;0.30;0.30;;;21.50;70.60;;;;;;3969179;29;20155;-66
2022/07/16 03:41:55;;;;;;;0.00;0.00;;;21.50;70.60;;;;;;3958440;29;20419;-66
2022/07/16 03:44:17;;;;;;;0.00;0.00;;;21.50;70.60;;;;;;3957938;29;20515;-66
2022/07/16 03:46:39;;;;;;;0.00;0.00;;;21.50;70.70;;;;;;3966299;29;20047;-66
2022/07/16 03:49:01;;;;;;;0.00;0.00;;;21.50;70.70;;;;;;3972848;29;20511;-66
2022/07/16 03:51:24;;;;;;;0.00;0.00;;;21.50;70.70;;;;;;3973241;29;20062;-66
2022/07/16 03:53:47;;;;;;;0.00;0.00;;;21.50;70.80;;;;;;3972846;29;20058;-66
2022/07/16 03:56:09;;;;;;;0.35;0.35;;;21.50;70.70;;;;;;3969778;29;20070;-65
2022/07/16 03:58:32;;;;;;;0.00;0.00;;;21.50;70.80;;;;;;3957732;29;20061;-66
2022/07/16 04:00:54;;;;;;;0.00;0.00;;;21.50;70.80;;;;;;3958084;29;20061;-66
2022/07/16 04:03:16;;;;;;;0.00;0.00;;;21.50;70.90;;;;;;3958229;29;20057;-66
2022/07/16 04:05:38;;;;;;;0.00;0.00;;;21.50;70.90;;;;;;3960537;29;20553;-66
2022/07/16 04:08:00;;;;;;;0.00;0.00;;;21.50;71.00;;;;;;3957829;29;20136;-66
2022/07/16 04:10:23;;;;;;;0.00;0.00;;;21.50;71.10;;;;;;3957760;29;20427;-66
2022/07/16 04:12:46;;;;;;;0.00;0.00;;;21.40;71.00;;;;;;3957893;29;20061;-66
2022/07/16 04:15:09;;;;;;;0.00;0.00;;;21.40;70.90;;;;;;3963380;29;20054;-66
2022/07/16 04:17:31;;;;;;;0.00;0.00;;;21.40;70.90;;;;;;3972875;29;20065;-66
2022/07/16 04:19:53;;;;;;;7.05;0.68;;;21.40;70.90;;;;;;3972331;29;20057;-66
2022/07/16 04:22:15;;;;;;;0.22;0.22;;;21.40;70.90;;;;;;3972333;29;20419;-66
2022/07/16 04:24:37;;;;;;;0.00;0.00;;;21.40;71.00;;;;;;3968887;29;20081;-66
2022/07/16 04:27:00;;;;;;;0.00;0.00;;;21.40;70.90;;;;;;3957474;29;20055;-66
2022/07/16 04:29:23;;;;;;;0.00;0.00;;;21.40;70.90;;;;;;3957165;29;20503;-66
2022/07/16 04:31:45;;;;;;;1.50;0.75;;;21.50;71.00;;;;;;3957093;29;20385;-66
2022/07/16 04:34:07;;;;;;;0.00;0.00;;;21.40;70.90;;;;;;3958711;29;20047;-66
2022/07/16 04:36:29;;;;;;;0.00;0.00;;;21.50;70.90;;;;;;3972665;29;20578;-66
2022/07/16 04:38:51;;;;;;;0.00;0.00;;;21.50;70.70;;;;;;3972055;29;20503;-67
2022/07/16 04:41:13;;;;;;;0.00;0.00;;;21.50;70.60;;;;;;3972443;29;20103;-67
2022/07/16 04:43:37;;;;;;;0.20;0.20;;;21.50;70.60;;;;;;3971833;29;20108;-66
2022/07/16 04:45:59;;;;;;;0.00;0.00;;;21.50;70.70;;;;;;3956881;29;20059;-67
2022/07/16 04:48:21;;;;;;;0.00;0.00;;;21.50;71.60;;;;;;3956705;29;20557;-67
2022/07/16 04:50:43;;;;;;;0.10;0.10;;;21.50;71.80;;;;;;3956979;29;20051;-67
2022/07/16 04:53:05;;;;;;;0.20;0.20;;;21.50;72.50;;;;;;3947687;29;20051;-67
2022/07/16 04:55:27;;;;;;;0.20;0.20;;;21.50;71.30;;;;;;3971807;29;20474;-67
2022/07/16 04:57:49;;;;;;;0.00;0.00;;;21.50;71.20;;;;;;3971308;29;20142;-67
2022/07/16 05:00:18;;;;;;;0.00;0.00;;;21.50;71.20;;;;;;3971623;29;20062;-67
2022/07/16 05:02:58;;;;;;;0.00;0.00;;;21.50;71.00;;;;;;3969298;29;20383;-67
2022/07/16 05:05:20;;;;;;;1.40;1.05;;;21.50;71.00;;;;;;3956714;29;20158;-67
2022/07/16 05:07:42;;;;;;;0.63;0.63;;;21.50;71.00;;;;;;3956700;29;20124;-67
2022/07/16 05:10:05;;;;;;;0.00;0.00;;;21.50;71.10;;;;;;3957320;29;20059;-67
2022/07/16 05:12:27;;;;;;;0.00;0.00;;;21.50;71.20;;;;;;3956825;29;20379;-68
2022/07/16 05:14:49;;;;;;;0.00;0.00;;;21.50;70.90;;;;;;3956732;30;20548;-68
2022/07/16 05:17:13;;;;;;;0.00;0.00;;;21.50;71.00;;;;;;3956288;30;20069;-68
2022/07/16 05:19:35;;;;;;;0.00;0.00;;;21.50;70.90;;;;;;3956896;30;20063;-67
2022/07/16 05:21:57;;;;;;;0.00;0.00;;;21.50;71.00;;;;;;3956611;30;20508;-67
2022/07/16 05:24:19;;;;;;;0.00;0.00;;;21.50;70.70;;;;;;3956839;30;20051;-67
2022/07/16 05:26:41;;;;;;;0.00;0.00;;;21.50;70.50;;;;;;3955812;29;20423;-67
2022/07/16 05:29:04;;;;;;;0.20;0.20;;;21.60;70.00;;;;;;3956653;30;20043;-67
2022/07/16 05:31:26;;;;;;;0.00;0.00;;;21.60;69.90;;;;;;3956312;30;20055;-66
2022/07/16 05:33:49;;;;;;;0.00;0.00;;;21.60;69.30;;;;;;3966995;29;20467;-66
2022/07/16 05:36:12;;;;;;;0.00;0.00;;;21.70;69.00;;;;;;3971124;29;20111;-67
2022/07/16 05:38:34;;;;;;;0.30;0.30;;;21.70;68.70;;;;;;3971233;29;20143;-67
2022/07/16 05:40:56;;;;;;;0.00;0.00;;;21.70;67.90;;;;;;3971244;29;20059;-67
2022/07/16 05:43:18;;;;;;;0.00;0.00;;;21.70;68.00;;;;;;3961106;29;20112;-67
2022/07/16 05:45:40;;;;;;;0.00;0.00;;;21.70;67.50;;;;;;3956162;29;20126;-67
2022/07/16 05:48:02;;;;;;;0.00;0.00;;;21.70;68.20;;;;;;3956450;29;20055;-67
2022/07/16 05:50:25;;;;;;;0.00;0.00;;;21.70;67.10;;;;;;3956242;29;20113;-67
2022/07/16 05:52:47;;;;;;;0.00;0.00;;;21.70;66.50;;;;;;3948400;29;20112;-66
2022/07/16 05:55:10;;;;;;;0.00;0.00;;;21.70;66.00;;;;;;3970886;29;20054;-66
2022/07/16 05:57:32;;;;;;;0.08;0.08;;;21.70;66.30;;;;;;3971055;29;20055;-67
2022/07/16 05:59:54;;;;;;;0.00;0.00;;;21.70;67.40;;;;;;3971082;29;20143;-67
2022/07/16 06:02:16;;;;;;;0.30;0.30;;;21.70;65.90;;;;;;3956695;29;20570;-68
2022/07/16 06:04:38;;;;;;;32.60;1.88;;;21.70;66.10;;;;;;3960401;29;20089;-68
2022/07/16 06:07:02;;;;;;;0.32;0.32;;;21.60;65.80;;;;;;3955914;29;20112;-67
2022/07/16 06:09:24;;;;;;;0.00;0.00;;;21.60;64.90;;;;;;3955661;29;20055;-67
2022/07/16 06:11:46;;;;;;;0.00;0.00;;;21.60;65.10;;;;;;3956057;29;20069;-69
2022/07/16 06:14:08;;;;;;;0.10;0.10;;;21.60;65.30;;;;;;3955995;29;20559;-67
2022/07/16 06:16:30;;;;;;;0.00;0.00;;;21.50;64.60;;;;;;3955729;29;20062;-67
2022/07/16 06:18:52;;;;;;;0.00;0.00;;;21.50;64.50;;;;;;3942347;29;20058;-67
2022/07/16 06:21:15;;;;;;;0.00;0.00;;;21.40;65.60;;;;;;3941834;29;20152;-67
2022/07/16 06:23:38;;;;;;;0.00;0.00;;;21.40;65.50;;;;;;3935412;29;20055;-67
2022/07/16 06:26:00;;;;;;;0.00;0.00;;;21.40;64.60;;;;;;3955568;29;20120;-67
2022/07/16 06:28:22;;;;;;;0.00;0.00;;;21.40;65.70;;;;;;3956042;29;20458;-66
2022/07/16 06:30:44;;;;;;;0.00;0.00;;;21.40;65.60;;;;;;3967577;29;20447;-66
2022/07/16 06:33:06;;;;;;;0.00;0.00;;;21.40;64.50;;;;;;3956401;29;20138;-67
2022/07/16 06:35:33;;;;;;;0.00;0.00;;;21.40;64.70;;;;;;3955905;29;20054;-67
2022/07/16 06:37:55;;;;;;;0.00;0.00;;;21.40;65.20;;;;;;3955676;29;20520;-67
2022/07/16 06:40:18;;;;;;;0.00;0.00;;;21.40;64.60;;;;;;3958953;29;20063;-67
2022/07/16 06:42:40;;;;;;;5.40;0.75;;;21.40;64.60;;;;;;3959422;29;20560;-67
2022/07/16 06:45:02;;;;;;;0.00;0.00;;;21.40;62.70;;;;;;3958663;29;20557;-67
2022/07/16 06:47:27;;;;;;;0.00;0.00;;;21.50;61.80;;;;;;3959272;29;20059;-67
2022/07/16 06:49:49;;;;;;;0.00;0.00;;;21.50;61.90;;;;;;3958744;29;20491;-68
2022/07/16 06:52:11;;;;;;;0.00;0.00;;;21.60;60.60;;;;;;3959135;29;20076;-67
2022/07/16 06:54:33;;;;;;;0.00;0.00;;;21.60;60.30;;;;;;3945318;29;20059;-67
2022/07/16 06:56:57;;;;;;;0.00;0.00;;;21.70;60.90;;;;;;3958942;29;20124;-67
2022/07/16 06:59:18;;;;;;;0.20;0.20;;;21.70;61.30;;;;;;3958015;29;20071;-68
2022/07/16 07:01:40;;;;;;;0.00;0.00;;;21.80;60.60;;;;;;3963958;29;20147;-68
2022/07/16 07:04:02;;;;;;;0.00;0.00;;;21.90;60.10;;;;;;3966206;29;20058;-68
2022/07/16 07:06:24;;;;;;;0.00;0.00;;;21.90;60.10;;;;;;3973339;29;20085;-67
2022/07/16 07:08:47;;;;;;;0.00;0.00;;;21.90;60.20;;;;;;3974031;29;20066;-68
2022/07/16 07:11:13;;;;;;;0.00;0.00;;;22.00;60.40;;;;;;3973363;29;20058;-68
2022/07/16 07:13:37;;;;;;;0.00;0.00;;;22.10;60.00;;;;;;3972303;29;20054;-68
2022/07/16 07:16:00;;;;;;;0.82;0.77;;;22.10;59.70;;;;;;3973551;29;20139;-68
2022/07/16 07:18:23;;;;;;;0.00;0.00;;;22.20;58.90;;;;;;3960242;29;20138;-67
2022/07/16 07:20:50;;;;;;;0.00;0.00;;;22.20;59.40;;;;;;3973168;29;20119;-67
2022/07/16 07:23:12;;;;;;;0.00;0.00;;;22.30;58.60;;;;;;3971792;29;20065;-67
2022/07/16 07:25:34;;;;;;;0.00;0.00;;;22.30;58.80;;;;;;3973347;29;20075;-67
2022/07/16 07:28:01;;;;;;;0.00;0.00;;;22.30;58.30;;;;;;3969187;29;20055;-67
2022/07/16 07:30:25;;;;;;;0.00;0.00;;;22.20;57.70;;;;;;3973219;29;20119;-67
2022/07/16 07:32:47;;;;;;;0.00;0.00;;;22.20;57.50;;;;;;3958422;29;20056;-67
2022/07/16 07:35:10;;;;;;;0.00;0.00;;;22.20;57.20;;;;;;3972683;29;20057;-67
2022/07/16 07:37:32;;;;;;;0.00;0.00;;;22.20;58.20;;;;;;3973587;29;20111;-67
2022/07/16 07:39:54;;;;;;;0.00;0.00;;;22.20;57.90;;;;;;3973370;29;20107;-67
2022/07/16 07:42:16;;;;;;;0.00;0.00;;;22.20;58.40;;;;;;3971372;29;20051;-67
2022/07/16 07:44:38;;;;;;;0.00;0.00;;;22.20;56.50;;;;;;3944772;29;20116;-67
2022/07/16 07:47:02;;;;;;;0.00;0.00;;;22.30;56.50;;;;;;3958427;29;20090;-67
2022/07/16 07:49:24;;;;;;;0.00;0.00;;;22.30;56.50;;;;;;3957758;29;20058;-67
2022/07/16 07:51:47;;;;;;;0.52;0.52;;;22.20;57.20;;;;;;3958304;30;20425;-68
2022/07/16 07:54:09;;;;;;;0.00;0.00;;;22.20;57.20;;;;;;3958167;30;20044;-67
2022/07/16 07:56:31;;;;;;;0.00;0.00;;;22.20;57.70;;;;;;3958246;30;20051;-67
2022/07/16 07:58:53;;;;;;;0.10;0.10;;;22.20;58.40;;;;;;3957911;30;20462;-68
2022/07/16 08:01:15;;;;;;;0.00;0.00;;;22.20;56.40;;;;;;3945408;29;20449;-68
2022/07/16 08:03:48;;;;;;;0.00;0.00;;;22.10;57.50;;;;;;3958048;29;20528;-68
2022/07/16 08:06:10;;;;;;;0.00;0.00;;;22.10;57.50;;;;;;3957811;29;20075;-68
2022/07/16 08:08:32;;;;;;;0.00;0.00;;;22.10;58.00;;;;;;3957833;29;20153;-67
2022/07/16 08:10:54;;;;;;;0.00;0.00;;;22.10;58.00;;;;;;3958346;29;20093;-67
2022/07/16 08:13:17;;;;;;;0.30;0.30;;;22.00;58.20;;;;;;3958035;29;20108;-67
2022/07/16 08:15:39;;;;;;;0.00;0.00;;;22.00;58.00;;;;;;3957803;29;20498;-68
2022/07/16 08:18:01;;;;;;;0.00;0.00;;;22.00;58.20;;;;;;3958324;29;20063;-68
2022/07/16 08:20:25;;;;;;;0.00;0.00;;;22.00;58.20;;;;;;3958217;29;20166;-68
2022/07/16 08:22:47;;;;;;;0.00;0.00;;;22.00;59.50;;;;;;3943990;29;20060;-67
2022/07/16 08:27:49;;;;;;;0.00;0.00;;;22.00;59.00;;;;;;3957498;29;20116;-67
2022/07/16 08:30:12;;;;;;;0.00;0.00;;;22.00;59.10;;;;;;3958143;29;20408;-67
2022/07/16 08:32:33;;;;;;;0.00;0.00;;;22.00;59.10;;;;;;3957688;29;20136;-67
2022/07/16 08:34:56;;;;;;;0.00;0.00;;;22.00;59.20;;;;;;3957370;29;20058;-68
2022/07/16 08:37:33;;;;;;;0.00;0.00;;;21.90;58.80;;;;;;3957922;29;20462;-68
2022/07/16 08:39:55;;;;;;;0.00;0.00;;;21.90;59.10;;;;;;3958049;29;20059;-68
2022/07/16 08:42:17;;;;;;;0.00;0.00;;;21.90;58.90;;;;;;3966517;29;20062;-68
2022/07/16 08:44:40;;;;;;;0.00;0.00;;;22.00;59.20;;;;;;3954245;29;20051;-68
2022/07/16 08:47:10;;;;;;;0.00;0.00;;;22.00;59.50;;;;;;3957203;30;20057;-67
2022/07/16 08:49:33;;;;;;;0.00;0.00;;;22.00;59.30;;;;;;3957246;29;20051;-68
2022/07/16 08:52:02;;;;;;;0.00;0.00;;;22.00;59.30;;;;;;3957264;29;20055;-68
2022/07/16 08:54:28;;;;;;;0.28;0.28;;;22.10;58.80;;;;;;3956979;29;20052;-68
2022/07/16 08:56:51;;;;;;;0.00;0.00;;;22.10;59.00;;;;;;3956923;29;20072;-69
2022/07/16 08:59:14;;;;;;;0.15;0.15;;;22.10;59.20;;;;;;3968490;29;20070;-69
2022/07/16 09:01:36;;;;;;;0.00;0.00;;;22.10;59.30;;;;;;3956439;29;20055;-69
2022/07/16 09:03:59;;;;;;;0.00;0.00;;;22.10;59.50;;;;;;3971862;29;20059;-69
2022/07/16 09:06:21;;;;;;;0.00;0.00;;;22.10;59.80;;;;;;3971804;29;20111;-69
2022/07/16 09:08:43;;;;;;;0.00;0.00;;;22.00;59.30;;;;;;3970994;29;20050;-68
2022/07/16 09:11:21;;;;;;;0.00;0.00;;;22.00;59.30;;;;;;3971545;29;20073;-68
2022/07/16 09:14:04;;;;;;;0.00;0.00;;;22.00;59.50;;;;;;3971719;29;20650;-68
2022/07/16 09:16:29;;;;;;;0.00;0.00;;;22.00;59.20;;;;;;3971335;29;20065;-68
2022/07/16 09:19:02;;;;;;;1.67;1.55;;;22.00;58.10;;;;;;3971534;29;20169;-68
2022/07/16 09:21:24;;;;;;;0.05;0.05;;;22.00;58.90;;;;;;3971647;29;20142;-68
2022/07/16 09:23:48;;;;;;;0.00;0.00;;;22.00;58.60;;;;;;3966941;29;20371;-67
2022/07/16 09:26:12;;;;;;;0.10;0.10;;;22.00;58.70;;;;;;3942866;29;20051;-68
2022/07/16 09:28:43;;;;;;;0.00;0.00;;;22.10;58.90;;;;;;3950828;29;20243;-67
2022/07/16 09:31:05;;;;;;;0.00;0.00;;;22.00;58.20;;;;;;3971920;29;20051;-67
2022/07/16 09:33:28;;;;;;;0.00;0.00;;;22.10;57.30;;;;;;3971487;29;20822;-68
2022/07/16 09:36:05;;;;;;;1.20;0.88;;;22.10;58.00;;;;;;3971611;29;20074;-68
2022/07/16 09:38:28;;;;;;;0.00;0.00;;;22.10;58.60;;;;;;3971592;29;20784;-68
2022/07/16 09:40:50;;;;;;;0.00;0.00;;;22.10;57.50;;;;;;3963012;29;20116;-68
2022/07/16 09:43:22;;;;;;;0.00;0.00;;;22.10;57.60;;;;;;3956479;29;20062;-68
2022/07/16 09:45:47;;;;;;;0.15;0.15;;;22.20;57.90;;;;;;3956468;29;20066;-68
2022/07/16 09:48:19;;;;;;;0.15;0.15;;;22.20;58.20;;;;;;3956090;29;20105;-67
2022/07/16 09:50:42;;;;;;;0.00;0.00;;;22.20;58.00;;;;;;3956493;29;20051;-67
2022/07/16 09:53:14;;;;;;;0.00;0.00;;;22.30;57.00;;;;;;3956139;29;20047;-67
2022/07/16 09:55:54;;;;;;;0.00;0.00;;;22.30;57.60;;;;;;3955845;29;20428;-67
2022/07/16 09:58:16;;;;;;;0.00;0.00;;;22.30;56.90;;;;;;3956015;29;20108;-67
2022/07/16 10:00:38;;;;;;;1.67;1.20;;;22.40;57.40;;;;;;3955684;29;20144;-66
2022/07/16 10:03:03;;;;;;;0.00;0.00;;;22.40;57.00;;;;;;3956128;29;20171;-67
2022/07/16 10:05:25;;;;;;;0.00;0.00;;;22.40;56.60;;;;;;3955652;29;20047;-68
2022/07/16 10:07:51;;;;;;;0.00;0.00;;;22.50;57.10;;;;;;3942595;29;20076;-68
2022/07/16 10:10:13;;;;;;;0.00;0.00;;;22.50;56.40;;;;;;3956107;29;20499;-67
2022/07/16 10:12:35;;;;;;;1.48;1.38;;;22.50;56.00;;;;;;3956393;29;20484;-66
2022/07/16 10:14:59;;;;;;;0.10;0.10;;;22.50;57.00;;;;;;3942094;29;20056;-68
2022/07/16 10:17:23;;;;;;;0.10;0.10;;;22.50;56.20;;;;;;3964008;29;20078;-67
2022/07/16 10:19:56;;;;;;;22.40;1.30;;;22.50;55.70;;;;;;3970412;29;20207;-67
2022/07/16 10:22:22;;;;;;;0.38;0.38;;;22.50;55.70;;;;;;3970679;29;20519;-67
2022/07/16 10:24:45;;;;;;;0.00;0.00;;;22.50;56.70;;;;;;3970519;29;20568;-67
2022/07/16 10:27:19;;;;;;;0.00;0.00;;;22.50;56.90;;;;;;3970551;29;20141;-68
2022/07/16 10:29:42;;;;;;;0.00;0.00;;;22.50;57.00;;;;;;3970696;29;20104;-68
2022/07/16 10:34:45;;;;;;;0.85;0.85;;;22.60;56.20;;;;;;3956180;30;20055;-68
2022/07/16 10:37:12;;;;;;;1.25;1.08;;;22.60;56.50;;;;;;3942298;30;20438;-68
2022/07/16 10:39:34;;;;;;;0.00;0.00;;;22.60;56.60;;;;;;3956493;30;20051;-67
2022/07/16 10:41:59;;;;;;;0.22;0.22;;;22.70;57.00;;;;;;3942406;30;20055;-67
2022/07/16 10:44:24;;;;;;;0.00;0.00;;;22.70;57.00;;;;;;3970263;29;20135;-68
2022/07/16 10:46:53;;;;;;;0.00;0.00;;;22.70;56.80;;;;;;3970481;29;20415;-67
2022/07/16 10:49:16;;;;;;;0.00;0.00;;;22.70;57.20;;;;;;3960561;29;20069;-68
2022/07/16 10:51:55;;;;;;;0.05;0.05;;;22.70;57.10;;;;;;3956235;30;20411;-67
2022/07/16 10:54:20;;;;;;;0.00;0.00;;;22.70;56.70;;;;;;3969526;29;20559;-67
2022/07/16 10:56:47;;;;;;;0.00;0.00;;;22.70;57.10;;;;;;3970569;29;20053;-67
2022/07/16 10:59:11;;;;;;;0.00;0.00;;;22.70;56.80;;;;;;3971034;29;20149;-67
2022/07/16 11:01:35;;;;;;;0.00;0.00;;;22.70;56.60;;;;;;3966498;29;20051;-67
2022/07/16 11:03:57;;;;;;;0.00;0.00;;;22.70;57.00;;;;;;3942191;29;20055;-67
2022/07/16 11:06:21;;;;;;;0.35;0.35;;;22.70;57.00;;;;;;3955749;29;20059;-67
2022/07/16 11:08:44;;;;;;;0.52;0.47;;;22.70;57.90;;;;;;3955980;29;20136;-65
2022/07/16 11:11:07;;;;;;;0.00;0.00;;;22.70;57.10;;;;;;3963471;29;20124;-68
2022/07/16 11:13:29;;;;;;;0.52;0.52;;;22.70;56.90;;;;;;3949874;30;20484;-67
2022/07/16 11:15:53;;;;;;;0.00;0.00;;;22.70;57.10;;;;;;3947173;30;20175;-67
2022/07/16 11:18:18;;;;;;;0.00;0.00;;;22.80;56.60;;;;;;3946898;29;20104;-67
2022/07/16 11:20:40;;;;;;;0.00;0.00;;;22.80;56.90;;;;;;3964576;29;20138;-67
2022/07/16 11:23:06;;;;;;;0.38;0.38;;;22.80;56.90;;;;;;3956007;29;20063;-67
2022/07/16 11:25:29;;;;;;;0.00;0.00;;;22.80;56.80;;;;;;3958363;29;20412;-67
2022/07/16 11:27:51;;;;;;;0.00;0.00;;;22.80;57.00;;;;;;3954037;29;20055;-67
2022/07/16 11:30:14;;;;;;;0.00;0.00;;;22.80;55.60;;;;;;3958352;29;20047;-67
2022/07/16 11:32:42;;;;;;;0.00;0.00;;;22.80;56.30;;;;;;3958302;29;20051;-67
2022/07/16 11:35:05;;;;;;;0.00;0.00;;;22.80;56.30;;;;;;3944715;29;20155;-67
2022/07/16 11:37:28;;;;;;;0.10;0.10;;;22.80;56.50;;;;;;3960212;29;20055;-67
2022/07/16 11:39:58;;;;;;;0.00;0.00;;;22.80;56.40;;;;;;3959174;29;20104;-67
2022/07/16 11:42:22;;;;;;;0.00;0.00;;;22.80;55.40;;;;;;3973131;29;20054;-67
2022/07/16 11:44:44;;;;;;;0.00;0.00;;;22.80;55.70;;;;;;3959555;29;20047;-67
2022/07/16 11:47:08;;;;;;;0.05;0.05;;;22.80;56.00;;;;;;3950075;29;20065;-67
2022/07/16 11:49:32;;;;;;;0.73;0.60;;;22.80;56.00;;;;;;3952922;29;20109;-67
2022/07/16 11:51:55;;;;;;;0.00;0.00;;;22.90;55.90;;;;;;3971908;29;20488;-67
2022/07/16 11:54:17;;;;;;;0.00;0.00;;;22.90;55.20;;;;;;3972454;29;20058;-67
2022/07/16 11:56:41;;;;;;;0.00;0.00;;;22.90;55.10;;;;;;3957321;29;20112;-67
2022/07/16 11:59:16;;;;;;;0.00;0.00;;;22.90;54.70;;;;;;3970697;29;20478;-66
2022/07/16 12:01:38;;;;;;;1.13;0.70;;;22.90;54.40;;;;;;3972452;29;20054;-66
2022/07/16 12:04:00;;;;;;;0.00;0.00;;;22.90;55.10;;;;;;3967218;29;20141;-67
2022/07/16 12:06:22;;;;;;;0.00;0.00;;;22.90;54.60;;;;;;3972676;29;20057;-67
2022/07/16 12:08:51;;;;;;;0.00;0.00;;;22.90;54.60;;;;;;3972572;29;20145;-67
2022/07/16 12:11:14;;;;;;;0.00;0.00;;;23.00;55.10;;;;;;3971923;29;20062;-67
2022/07/16 12:13:39;;;;;;;0.00;0.00;;;23.00;54.80;;;;;;3972955;29;20133;-67
2022/07/16 12:16:09;;;;;;;0.00;0.00;;;23.00;54.60;;;;;;3972286;29;20061;-67
2022/07/16 12:18:31;;;;;;;0.00;0.00;;;23.00;54.20;;;;;;3970942;29;20285;-67
2022/07/16 12:20:53;;;;;;;0.00;0.00;;;23.00;54.20;;;;;;3965355;29;20415;-67
2022/07/16 12:23:31;;;;;;;0.00;0.00;;;23.00;54.50;;;;;;3972319;29;20138;-67
2022/07/16 12:26:01;;;;;;;0.63;0.63;;;23.10;54.30;;;;;;3972441;29;20514;-67
2022/07/16 12:28:25;;;;;;;0.00;0.00;;;23.10;54.30;;;;;;3964931;29;20055;-67
2022/07/16 12:30:52;;;;;;;0.00;0.00;;;23.10;53.20;;;;;;3957419;29;20526;-68
2022/07/16 12:33:26;;;;;;;0.63;0.63;;;23.10;53.70;;;;;;3957798;29;20066;-67
2022/07/16 12:35:51;;;;;;;0.00;0.00;;;23.10;53.80;;;;;;3968284;29;20047;-67